Latest Weather Observations for Solomon Airport

IDW60801

Issued at 12:43 pm WST Tuesday 10 December 2019 (issued every 10 minutes, with the page automatically refreshed every 10 minutes)

About weather observations | Map of weather stations | Latest weather observations for WA | Other Formats
Station Details ID: 505060 Name: SOLOMON AIRPORT Lat: -22.25 Lon: 117.85 Height: 611.47 m
Data from the previous 72 hours. | See also: Recent months for locations in Western Australia
Date/Time
WST
Temp
°C
App
Temp
°C
Dew
Point
°C
Rel
Hum
%
Delta-T
°C
Wind Press
QNH
hPa
Press
MSL
hPa
Rain since
9am
mm
Dir  Spd
km/h
Gust
km/h
Spd
kts
Gust
kts
10/12:30pm 41.9 37.9 6.7 12 20.5 NNE 17 33 9 18 1011.5 1005.9 0.0
10/12:00pm 40.5 35.2 6.7 13 19.6 NE 24 39 13 21 1011.9 1006.4 0.0
10/11:30am 40.4 35.1 6.7 13 19.5 ENE 24 41 13 22 1012.3 1006.7 0.0
10/11:00am 39.6 33.6 7.1 14 18.8 NE 28 43 15 23 1012.5 1006.9 0.0
10/10:30am 39.0 33.5 7.7 15 18.2 ENE 26 44 14 24 1012.7 1007.1 0.0
10/10:00am 38.0 32.2 7.8 16 17.6 NE 28 41 15 22 1013.0 1007.4 0.0
10/09:30am 37.1 31.3 8.0 17 16.9 NE 28 48 15 26 1013.1 1007.5 0.0
10/09:08am 35.9 29.3 7.9 18 16.1 NE 32 50 17 27 1013.1 1007.5 0.0
10/09:00am 36.1 29.4 8.0 18 16.3 ENE 33 50 18 27 1013.0 1007.4 0.0
10/08:30am 36.4 28.4 7.4 17 16.6 ENE 39 59 21 32 1012.9 1007.3 0.0
10/08:21am 36.3 29.4 7.4 17 16.6 ENE 33 59 18 32 1012.8 1007.2 0.0
10/08:00am 35.8 29.0 7.0 17 16.4 ENE 32 46 17 25 1012.8 1007.2 0.0
10/07:48am 35.4 30.1 6.6 17 16.2 ENE 24 44 13 24 1012.7 1007.1 0.0
10/07:30am 32.8 29.8 6.2 19 14.7 E 11 15 6 8 1012.8 1007.2 0.0
10/07:00am 30.1 28.8 6.1 22 13.1 SSE 2 6 1 3 1012.7 1007.1 0.0
10/06:30am 27.8 26.9 6.0 25 11.7 CALM 0 2 0 1 1012.6 1007.0 0.0
10/06:00am 27.5 26.8 6.8 27 11.3 CALM 0 2 0 1 1012.3 1006.7 0.0
10/05:30am 27.3 25.3 6.1 26 11.4 WNW 6 7 3 4 1012.1 1006.6 0.0
10/05:00am 27.1 25.0 6.0 26 11.3 WNW 6 7 3 4 1011.7 1006.1 0.0
10/04:30am 27.7 25.6 5.9 25 11.7 NNE 6 15 3 8 1011.4 1005.8 0.0
10/04:00am 27.5 26.5 5.7 25 11.7 CALM 0 0 0 0 1011.0 1005.4 0.0
10/03:30am 27.6 25.9 5.8 25 11.7 ENE 4 7 2 4 1011.1 1005.5 0.0
10/03:00am 27.6 25.3 5.8 25 11.7 ESE 7 9 4 5 1011.1 1005.5 0.0
10/02:30am 27.8 25.4 5.4 24 11.9 SE 7 11 4 6 1011.0 1005.4 0.0
10/02:00am 28.2 25.4 5.1 23 12.3 WSW 9 9 5 5 1010.8 1005.2 0.0
10/01:30am 29.1 25.7 5.9 23 12.5 WSW 13 17 7 9 1011.1 1005.5 0.0
10/01:00am 29.5 26.0 5.6 22 12.9 WSW 13 17 7 9 1011.3 1005.7 0.0
10/12:30am 30.0 26.5 5.3 21 13.3 WSW 13 17 7 9 1011.7 1006.1 0.0
10/12:00am 31.2 26.4 5.6 20 13.9 WSW 20 28 11 15 1011.8 1006.2 0.0
 
Date/Time
WST
Temp
°C
App
Temp
°C
Dew
Point
°C
Rel
Hum
%
Delta-T
°C
Wind Press
QNH
hPa
Press
MSL
hPa
Rain since
9am
mm
Dir  Spd
km/h
Gust
km/h
Spd
kts
Gust
kts
09/11:30pm 31.6 27.8 5.9 20 14.1 WSW 15 20 8 11 1012.1 1006.6 0.0
09/11:00pm 32.1 27.5 5.6 19 14.5 WSW 19 24 10 13 1012.4 1006.8 0.0
09/10:30pm 32.7 29.4 4.5 17 15.2 WSW 11 13 6 7 1012.6 1007.0 0.0
09/10:00pm 34.5 29.8 5.0 16 16.2 W 19 26 10 14 1012.3 1006.7 0.0
09/09:30pm 35.8 31.8 0.8 11 18.1 NW 11 19 6 10 1012.0 1006.5 0.0
09/09:00pm 36.5 32.4 0.0 10 18.7 NW 11 17 6 9 1011.7 1006.1 0.0
09/08:30pm 36.9 32.9 0.3 10 18.9 NW 11 15 6 8 1011.6 1006.0 0.0
09/08:00pm 37.0 33.4 0.4 10 18.9 NW 9 17 5 9 1011.4 1005.8 0.0
09/07:30pm 37.5 33.2 0.7 10 19.2 NNW 13 17 7 9 1011.2 1005.6 0.0
09/07:00pm 38.1 33.6 -0.3 9 19.8 NNW 13 19 7 10 1010.9 1005.3 0.0
09/06:30pm 38.8 34.0 0.3 9 20.1 NNW 15 20 8 11 1010.6 1005.0 0.0
09/06:00pm 39.4 34.4 -0.9 8 20.7 NW 15 22 8 12 1010.2 1004.6 0.0
09/05:30pm 40.1 36.0 -0.4 8 21.1 N 11 20 6 11 1010.1 1004.5 0.0
09/05:00pm 39.2 35.6 0.6 9 20.3 ENE 9 15 5 8 1010.1 1004.5 0.0
09/04:30pm 40.2 36.1 -0.3 8 21.1 N 11 20 6 11 1010.0 1004.4 0.0
09/04:00pm 40.3 36.6 -0.3 8 21.2 NNE 9 19 5 10 1010.1 1004.5 0.0
09/03:30pm 40.6 36.0 1.6 9 20.9 NE 15 24 8 13 1010.2 1004.6 0.0
09/03:00pm 40.0 35.1 -0.5 8 21.0 NW 15 32 8 17 1010.6 1005.0 0.0
09/02:30pm 40.4 36.2 1.4 9 20.9 NE 13 22 7 12 1010.8 1005.2 0.0
09/02:00pm 40.5 35.1 1.5 9 20.9 N 19 32 10 17 1011.2 1005.6 0.0
09/01:30pm 40.1 35.4 1.2 9 20.7 NNE 15 37 8 20 1011.4 1005.8 0.0
09/01:00pm 39.6 35.1 2.3 10 20.1 NNE 15 30 8 16 1011.8 1006.2 0.0
09/12:30pm 39.3 34.8 2.1 10 20.0 NNE 15 24 8 13 1012.3 1006.7 0.0
09/12:00pm 38.1 35.2 2.5 11 19.1 SW 7 19 4 10 1012.6 1007.0 0.0
09/11:30am 37.7 33.0 3.4 12 18.6 NNE 17 28 9 15 1013.0 1007.4 0.0
09/11:00am 37.2 33.5 4.2 13 18.1 SE 13 24 7 13 1013.5 1008.0 0.0
09/10:30am 36.4 33.3 3.6 13 17.8 SE 9 22 5 12 1014.0 1008.4 0.0
09/10:00am 35.9 32.2 4.2 14 17.3 SSE 13 24 7 13 1014.2 1008.6 0.0
09/09:30am 34.9 32.4 3.5 14 16.8 S 6 19 3 10 1014.3 1008.7 0.0
09/09:00am 35.0 30.4 3.5 14 16.9 SE 17 30 9 16 1014.5 1008.9 0.0
09/08:30am 34.0 30.2 3.7 15 16.2 SSE 13 22 7 12 1014.6 1009.0 0.0
09/08:00am 32.7 28.3 4.5 17 15.2 SSE 17 26 9 14 1014.6 1009.0 0.0
09/07:30am 31.2 27.4 4.1 18 14.4 SSE 13 19 7 10 1014.5 1008.9 0.0
09/07:00am 29.4 26.4 4.1 20 13.3 S 9 13 5 7 1014.3 1008.7 0.0
09/06:30am 27.0 24.8 3.5 22 12.0 SW 4 7 2 4 1014.1 1008.5 0.0
09/06:00am 25.7 23.1 3.0 23 11.4 W 6 7 3 4 1014.0 1008.4 0.0
09/05:30am 25.0 21.7 2.4 23 11.2 W 9 11 5 6 1013.7 1008.2 0.0
09/05:00am 25.2 21.5 2.6 23 11.3 W 11 15 6 8 1013.4 1007.9 0.0
09/04:30am 25.3 21.6 2.1 22 11.5 W 11 13 6 7 1013.2 1007.6 0.0
09/04:00am 25.8 22.1 2.5 22 11.6 W 11 17 6 9 1013.1 1007.5 0.0
09/03:30am 25.6 22.3 2.3 22 11.6 W 9 11 5 6 1013.0 1007.4 0.0
09/03:00am 25.5 22.7 2.9 23 11.4 W 7 9 4 5 1013.0 1007.4 0.0
09/02:30am 25.8 22.6 3.1 23 11.5 WSW 9 11 5 6 1013.0 1007.4 0.0
09/02:00am 25.3 22.6 2.7 23 11.3 W 6 7 3 4 1012.9 1007.3 0.0
09/01:30am 26.2 23.0 2.8 22 11.8 SW 9 11 5 6 1013.1 1007.5 0.0
09/01:00am 26.9 23.8 3.4 22 12.0 WSW 9 13 5 7 1013.2 1007.6 0.0
09/12:30am 27.4 24.2 3.2 21 12.4 WSW 9 11 5 6 1013.4 1007.9 0.0
09/12:00am 28.3 24.4 3.2 20 12.9 SW 13 19 7 10 1013.7 1008.2 0.0
 
Date/Time
WST
Temp
°C
App
Temp
°C
Dew
Point
°C
Rel
Hum
%
Delta-T
°C
Wind Press
QNH
hPa
Press
MSL
hPa
Rain since
9am
mm
Dir  Spd
km/h
Gust
km/h
Spd
kts
Gust
kts
08/11:30pm 28.6 25.5 3.5 20 13.0 SW 9 13 5 7 1014.0 1008.4 0.0
08/11:00pm 28.8 25.6 2.9 19 13.3 SW 9 13 5 7 1014.1 1008.5 0.0
08/10:30pm 29.1 26.4 2.4 18 13.6 WSW 6 9 3 5 1014.1 1008.5 0.0
08/10:00pm 29.7 26.7 2.1 17 14.0 W 7 9 4 5 1014.0 1008.4 0.0
08/09:30pm 30.5 27.1 1.9 16 14.6 WSW 9 19 5 10 1014.0 1008.4 0.0
08/09:00pm 30.6 27.4 1.0 15 14.9 WSW 7 9 4 5 1013.7 1008.2 0.0
08/08:30pm 31.4 27.8 0.7 14 15.4 WSW 9 11 5 6 1013.6 1008.1 0.0
08/08:00pm 32.4 28.6 1.5 14 15.8 SW 11 17 6 9 1013.4 1007.9 0.0
08/07:30pm 33.6 29.7 1.4 13 16.6 SW 11 17 6 9 1013.1 1007.5 0.0
08/07:00pm 34.8 29.8 1.2 12 17.4 SW 17 22 9 12 1012.7 1007.1 0.0
08/06:30pm 35.7 31.2 1.9 12 17.8 SW 15 22 8 12 1012.5 1006.9 0.0
08/06:00pm 36.4 31.2 2.5 12 18.1 SW 19 28 10 15 1012.1 1006.6 0.0
08/05:30pm 36.7 31.9 2.7 12 18.2 SSW 17 24 9 13 1012.0 1006.5 0.0
08/05:00pm 37.4 32.5 2.0 11 18.8 SW 17 30 9 16 1011.8 1006.2 0.0
08/04:30pm 37.3 32.4 1.9 11 18.8 WSW 17 30 9 16 1011.7 1006.1 0.0
08/04:00pm 38.0 33.2 2.5 11 19.1 SSW 17 32 9 17 1011.8 1006.2 0.0
08/03:30pm 37.3 32.4 1.9 11 18.8 W 17 32 9 17 1011.8 1006.2 0.0
08/03:00pm 37.5 33.4 2.1 11 18.9 WSW 13 30 7 16 1012.3 1006.7 0.0
08/02:30pm 37.5 31.7 2.1 11 18.8 SW 22 33 12 18 1012.5 1006.9 0.0
08/02:00pm 39.5 33.7 2.2 10 20.1 SW 22 39 12 21 1012.8 1007.2 0.0
08/01:30pm 38.5 33.7 2.8 11 19.3 SSW 17 37 9 20 1013.0 1007.4 0.0
08/01:00pm 36.9 32.9 2.8 12 18.3 W 13 30 7 16 1013.4 1007.9 0.0
08/12:30pm 37.1 31.8 3.0 12 18.4 SW 20 28 11 15 1013.7 1008.2 0.0
08/12:00pm 36.4 31.2 3.6 13 17.8 SSW 20 32 11 17 1014.1 1008.5 0.0
08/11:30am 36.3 31.1 3.5 13 17.7 S 20 33 11 18 1014.5 1008.9 0.0
08/11:00am 35.9 30.1 4.2 14 17.3 SSW 24 37 13 20 1014.9 1009.3 0.0
08/10:30am 35.9 30.1 4.2 14 17.3 S 24 35 13 19 1015.2 1009.7 0.0
08/10:00am 34.8 28.1 3.4 14 16.8 S 28 41 15 22 1015.2 1009.7 0.0
08/09:30am 34.2 27.9 3.9 15 16.3 S 26 41 14 22 1015.4 1009.9 0.0
08/09:00am 32.9 26.2 3.8 16 15.5 S 28 39 15 21 1015.4 1009.9 0.0
08/08:30am 32.2 25.0 3.2 16 15.2 S 30 37 16 20 1015.5 1010.0 0.0
08/08:00am 31.4 25.0 3.4 17 14.7 S 26 41 14 22 1015.4 1009.9 0.0
08/07:30am 30.3 24.3 3.4 18 14.0 SSW 24 33 13 18 1015.3 1009.8 0.0
08/07:00am 29.2 24.7 4.0 20 13.2 SSW 17 26 9 14 1015.2 1009.7 0.0
08/06:30am 26.8 23.3 3.3 22 12.0 SW 11 15 6 8 1015.1 1009.6 0.0
08/06:00am 25.7 22.2 3.6 24 11.3 WSW 11 17 6 9 1014.9 1009.3 0.0
08/05:30am 24.9 21.8 3.5 25 10.8 WSW 9 11 5 6 1014.5 1008.9 0.0
08/05:00am 24.8 21.7 3.5 25 10.8 WSW 9 11 5 6 1014.2 1008.6 0.0
08/04:30am 24.7 21.6 3.4 25 10.7 WSW 9 11 5 6 1014.1 1008.5 0.0
08/04:00am 24.7 22.0 2.8 24 10.9 WSW 6 9 3 5 1013.8 1008.3 0.0
08/03:30am 25.4 22.8 3.4 24 11.1 SSW 6 7 3 4 1013.5 1008.0 0.0
08/03:00am 26.4 22.9 3.6 23 11.7 SW 11 15 6 8 1013.4 1007.9 0.0
08/02:30am 26.9 23.0 3.4 22 12.0 SW 13 17 7 9 1013.3 1007.7 0.0
08/02:00am 27.6 23.2 2.6 20 12.7 SW 15 19 8 10 1013.3 1007.7 0.0
08/01:30am 28.0 23.8 1.5 18 13.2 WSW 13 22 7 12 1013.4 1007.9 0.0
08/01:00am 27.2 23.4 -0.8 16 13.3 WSW 9 13 5 7 1013.4 1007.9 0.0
08/12:30am 27.9 24.1 -1.1 15 13.8 WSW 9 13 5 7 1013.5 1008.0 0.0
08/12:00am 29.0 24.9 -0.2 15 14.2 WSW 11 13 6 7 1013.4 1007.9 0.0
 
Date/Time
WST
Temp
°C
App
Temp
°C
Dew
Point
°C
Rel
Hum
%
Delta-T
°C
Wind Press
QNH
hPa
Press
MSL
hPa
Rain since
9am
mm
Dir  Spd
km/h
Gust
km/h
Spd
kts
Gust
kts
07/11:30pm 29.7 25.7 0.3 15 14.5 W 11 13 6 7 1013.5 1008.0 0.0
07/11:00pm 30.1 26.4 -0.3 14 14.9 W 9 11 5 6 1013.5 1008.0 0.0
07/10:30pm 30.1 26.7 -0.3 14 14.9 W 7 11 4 6 1013.4 1007.9 0.0
07/10:00pm 30.3 27.0 -0.1 14 15.0 W 7 9 4 5 1013.1 1007.5 0.0
07/09:30pm 31.0 27.7 0.4 14 15.2 W 7 7 4 4 1012.9 1007.3 0.0
07/09:00pm 32.5 28.0 -0.5 12 16.4 SW 13 17 7 9 1012.6 1007.0 0.0
07/08:30pm 32.4 28.6 -0.6 12 16.3 WSW 9 15 5 8 1012.4 1006.8 0.0
07/08:00pm 33.6 29.0 -0.9 11 17.1 WSW 13 17 7 9 1012.0 1006.5 0.0
07/07:30pm 34.8 29.8 -1.3 10 17.9 WSW 15 19 8 10 1011.7 1006.1 0.0
07/07:00pm 35.7 30.4 -0.6 10 18.4 SW 17 28 9 15 1011.3 1005.7 0.0
07/06:30pm 36.8 30.8 -1.2 9 19.1 SW 20 28 11 15 1011.0 1005.4 0.0
07/06:00pm 37.7 32.0 -0.6 9 19.6 SW 19 30 10 16 1010.6 1005.0 0.0
07/05:30pm 38.1 32.8 -0.3 9 19.8 SW 17 24 9 13 1010.2 1004.6 0.0
07/05:00pm 38.5 34.8 0.0 9 20.0 SSW 9 19 5 10 1009.9 1004.3 0.0
07/04:30pm 39.1 33.2 -1.1 8 20.6 SW 20 28 11 15 1009.9 1004.3 0.0
07/04:00pm 39.4 33.5 -0.9 8 20.7 SW 20 35 11 19 1009.8 1004.2 0.0
07/03:30pm 39.4 33.4 -2.7 7 21.0 WSW 19 32 10 17 1009.9 1004.3 0.0
07/03:00pm 39.6 34.6 -4.6 6 21.5 WSW 13 26 7 14 1010.1 1004.5 0.0
07/02:30pm 38.7 33.6 -5.3 6 21.0 NNW 13 28 7 15 1010.3 1004.7 0.0
07/02:00pm 38.7 33.4 -7.6 5 21.4 WSW 13 32 7 17 1010.8 1005.2 0.0
07/01:30pm 38.3 32.4 -5.5 6 20.8 NW 17 32 9 17 1011.2 1005.6 0.0
07/01:16pm 39.4 32.6 -4.8 6 21.4 NNW 22 59 12 32 1010.7 1005.1 0.0
07/01:00pm 38.3 31.7 -3.5 7 20.5 NNW 22 37 12 20 1011.6 1006.0 0.0

Other formats

Comma delimited format used in spreadsheet applications
http://www.bom.gov.au/fwo/IDW60801/IDW60801.99217.axf

JavaScript Object Notation format (JSON) in row-major order
http://www.bom.gov.au/fwo/IDW60801/IDW60801.99217.json

Data quality

Most of these data are generated automatically and are frequently updated. Quality checks on data are not normally performed. It is possible for incorrect values to appear. Refer to information at About Latest Weather Observations and please check the disclaimer before using these data.